Lawtons, New York
Current Conditions -  °F | °C
As of 9:18 AM on Sunday 25 Jan 2015 (Local Time) from KDKK Reporting Station
Overcast Overcast  
Wind Chill:   Ceiling: 1500
Heat Index: 20°   Visibility: 10mi
Dew Point: 15°   Wind: 10mph
Humidity: 81%   Direction: 20°NNE
Pressure: 29.87"   Gusts: NA
Location:  42.54°N, 78.93°W
Report Text: KDKK 251418Z AUTO 02009KT 10SM BKN015 OVC085 M07/M09 A2987 RMK AO2 T10671094
Loading
Personal Weather Stations






























Interactive Weather Map New forecast layout! Learn more

10-Day Weather Forecast

Advertisements
Track Severe Weather on mobile